sensor_id;sensor_type;location;lat;lon;timestamp;P1;durP1;ratioP1;P2;durP2;ratioP2
60233;SDS011;49514;43.538;-5.708;2023-04-01T00:01:26;31.73;;;6.50;;
60233;SDS011;49514;43.538;-5.708;2023-04-01T00:03:52;29.60;;;6.63;;
60233;SDS011;49514;43.538;-5.708;2023-04-01T00:06:20;32.85;;;7.90;;
60233;SDS011;49514;43.538;-5.708;2023-04-01T00:08:46;32.20;;;7.37;;
60233;SDS011;49514;43.538;-5.708;2023-04-01T00:11:13;31.45;;;7.32;;
60233;SDS011;49514;43.538;-5.708;2023-04-01T00:13:41;34.90;;;7.78;;
60233;SDS011;49514;43.538;-5.708;2023-04-01T00:16:08;29.33;;;6.88;;
60233;SDS011;49514;43.538;-5.708;2023-04-01T00:18:35;26.40;;;6.57;;
60233;SDS011;49514;43.538;-5.708;2023-04-01T00:21:02;32.08;;;6.75;;
60233;SDS011;49514;43.538;-5.708;2023-04-01T00:23:28;27.52;;;6.45;;
60233;SDS011;49514;43.538;-5.708;2023-04-01T00:25:55;31.10;;;7.13;;
60233;SDS011;49514;43.538;-5.708;2023-04-01T00:28:22;29.90;;;7.00;;
60233;SDS011;49514;43.538;-5.708;2023-04-01T00:30:48;30.13;;;6.75;;
60233;SDS011;49514;43.538;-5.708;2023-04-01T00:33:15;33.37;;;6.93;;
60233;SDS011;49514;43.538;-5.708;2023-04-01T00:35:42;34.03;;;7.18;;
60233;SDS011;49514;43.538;-5.708;2023-04-01T00:38:09;30.73;;;7.05;;
60233;SDS011;49514;43.538;-5.708;2023-04-01T00:40:38;33.70;;;6.80;;
60233;SDS011;49514;43.538;-5.708;2023-04-01T00:43:11;33.67;;;7.85;;
60233;SDS011;49514;43.538;-5.708;2023-04-01T00:45:41;35.50;;;7.82;;
60233;SDS011;49514;43.538;-5.708;2023-04-01T00:48:22;30.95;;;7.57;;
60233;SDS011;49514;43.538;-5.708;2023-04-01T00:50:53;38.60;;;8.10;;
60233;SDS011;49514;43.538;-5.708;2023-04-01T00:53:34;36.00;;;8.30;;
60233;SDS011;49514;43.538;-5.708;2023-04-01T00:56:10;38.55;;;8.35;;
60233;SDS011;49514;43.538;-5.708;2023-04-01T00:58:43;39.50;;;8.40;;
60233;SDS011;49514;43.538;-5.708;2023-04-01T01:01:14;34.75;;;8.38;;
60233;SDS011;49514;43.538;-5.708;2023-04-01T01:03:41;36.13;;;8.40;;
60233;SDS011;49514;43.538;-5.708;2023-04-01T01:11:42;40.30;;;8.50;;
60233;SDS011;49514;43.538;-5.708;2023-04-01T01:16:53;36.47;;;7.78;;
60233;SDS011;49514;43.538;-5.708;2023-04-01T01:19:33;29.48;;;7.38;;
60233;SDS011;49514;43.538;-5.708;2023-04-01T01:27:18;32.08;;;7.10;;
60233;SDS011;49514;43.538;-5.708;2023-04-01T01:37:57;43.77;;;10.10;;
60233;SDS011;49514;43.538;-5.708;2023-04-01T01:40:53;31.60;;;9.55;;
60233;SDS011;49514;43.538;-5.708;2023-04-01T01:43:29;39.92;;;10.23;;
60233;SDS011;49514;43.538;-5.708;2023-04-01T01:46:00;34.67;;;9.27;;
60233;SDS011;49514;43.538;-5.708;2023-04-01T01:48:33;30.77;;;8.23;;
60233;SDS011;49514;43.538;-5.708;2023-04-01T01:51:02;34.10;;;8.65;;
60233;SDS011;49514;43.538;-5.708;2023-04-01T01:53:31;28.45;;;8.50;;
60233;SDS011;49514;43.538;-5.708;2023-04-01T01:55:58;35.17;;;9.13;;
60233;SDS011;49514;43.538;-5.708;2023-04-01T01:58:29;34.00;;;9.48;;
60233;SDS011;49514;43.538;-5.708;2023-04-01T02:01:09;41.50;;;10.15;;
60233;SDS011;49514;43.538;-5.708;2023-04-01T02:03:46;38.80;;;10.23;;
60233;SDS011;49514;43.538;-5.708;2023-04-01T02:06:15;36.35;;;9.98;;
60233;SDS011;49514;43.538;-5.708;2023-04-01T02:08:49;42.17;;;11.90;;
60233;SDS011;49514;43.538;-5.708;2023-04-01T02:11:40;36.88;;;10.05;;
60233;SDS011;49514;43.538;-5.708;2023-04-01T02:14:19;41.22;;;10.57;;
60233;SDS011;49514;43.538;-5.708;2023-04-01T02:17:00;39.40;;;11.02;;
60233;SDS011;49514;43.538;-5.708;2023-04-01T02:19:36;36.53;;;9.48;;
60233;SDS011;49514;43.538;-5.708;2023-04-01T02:22:08;36.45;;;9.10;;
60233;SDS011;49514;43.538;-5.708;2023-04-01T02:24:39;37.00;;;8.95;;
60233;SDS011;49514;43.538;-5.708;2023-04-01T02:27:07;33.40;;;8.03;;
60233;SDS011;49514;43.538;-5.708;2023-04-01T02:29:36;34.35;;;7.40;;
60233;SDS011;49514;43.538;-5.708;2023-04-01T02:32:07;33.45;;;6.85;;
60233;SDS011;49514;43.538;-5.708;2023-04-01T02:34:35;28.88;;;5.78;;
60233;SDS011;49514;43.538;-5.708;2023-04-01T02:37:03;26.33;;;5.68;;
60233;SDS011;49514;43.538;-5.708;2023-04-01T02:39:30;23.63;;;5.20;;
60233;SDS011;49514;43.538;-5.708;2023-04-01T02:41:57;26.38;;;4.90;;
60233;SDS011;49514;43.538;-5.708;2023-04-01T02:44:24;23.13;;;4.47;;
60233;SDS011;49514;43.538;-5.708;2023-04-01T02:46:50;21.33;;;4.22;;
60233;SDS011;49514;43.538;-5.708;2023-04-01T02:49:19;20.53;;;4.33;;
60233;SDS011;49514;43.538;-5.708;2023-04-01T02:51:46;22.50;;;4.13;;
60233;SDS011;49514;43.538;-5.708;2023-04-01T02:54:13;20.17;;;4.03;;
60233;SDS011;49514;43.538;-5.708;2023-04-01T02:56:39;18.80;;;3.70;;
60233;SDS011;49514;43.538;-5.708;2023-04-01T02:59:06;19.40;;;3.45;;
60233;SDS011;49514;43.538;-5.708;2023-04-01T03:01:33;17.70;;;3.83;;
60233;SDS011;49514;43.538;-5.708;2023-04-01T03:03:59;22.55;;;3.97;;
60233;SDS011;49514;43.538;-5.708;2023-04-01T03:06:26;21.33;;;4.23;;
60233;SDS011;49514;43.538;-5.708;2023-04-01T03:08:53;23.67;;;4.68;;
60233;SDS011;49514;43.538;-5.708;2023-04-01T03:11:20;26.65;;;4.88;;
60233;SDS011;49514;43.538;-5.708;2023-04-01T03:13:47;26.67;;;4.90;;
60233;SDS011;49514;43.538;-5.708;2023-04-01T03:16:15;25.67;;;5.03;;
60233;SDS011;49514;43.538;-5.708;2023-04-01T03:18:41;23.63;;;4.85;;
60233;SDS011;49514;43.538;-5.708;2023-04-01T03:21:21;26.20;;;5.30;;
60233;SDS011;49514;43.538;-5.708;2023-04-01T03:23:50;31.13;;;5.67;;
60233;SDS011;49514;43.538;-5.708;2023-04-01T03:26:18;28.83;;;6.13;;
60233;SDS011;49514;43.538;-5.708;2023-04-01T03:28:45;28.15;;;6.00;;
60233;SDS011;49514;43.538;-5.708;2023-04-01T03:31:12;25.25;;;5.75;;
60233;SDS011;49514;43.538;-5.708;2023-04-01T03:33:46;30.88;;;5.95;;
60233;SDS011;49514;43.538;-5.708;2023-04-01T03:36:12;28.77;;;5.75;;
60233;SDS011;49514;43.538;-5.708;2023-04-01T03:38:42;24.60;;;5.80;;
60233;SDS011;49514;43.538;-5.708;2023-04-01T03:41:16;21.85;;;5.40;;
60233;SDS011;49514;43.538;-5.708;2023-04-01T03:43:43;23.92;;;5.72;;
60233;SDS011;49514;43.538;-5.708;2023-04-01T03:46:11;23.40;;;5.60;;
60233;SDS011;49514;43.538;-5.708;2023-04-01T03:48:42;28.15;;;6.57;;
60233;SDS011;49514;43.538;-5.708;2023-04-01T03:51:09;23.70;;;5.90;;
60233;SDS011;49514;43.538;-5.708;2023-04-01T03:53:36;29.38;;;7.18;;
60233;SDS011;49514;43.538;-5.708;2023-04-01T03:56:05;26.80;;;6.93;;
60233;SDS011;49514;43.538;-5.708;2023-04-01T03:58:35;25.45;;;6.55;;
60233;SDS011;49514;43.538;-5.708;2023-04-01T04:01:03;25.08;;;6.55;;
60233;SDS011;49514;43.538;-5.708;2023-04-01T04:03:38;22.33;;;6.63;;
60233;SDS011;49514;43.538;-5.708;2023-04-01T04:06:05;31.40;;;7.57;;
60233;SDS011;49514;43.538;-5.708;2023-04-01T04:08:32;32.22;;;8.18;;
60233;SDS011;49514;43.538;-5.708;2023-04-01T04:10:58;31.17;;;8.02;;
60233;SDS011;49514;43.538;-5.708;2023-04-01T04:13:25;28.45;;;7.68;;
60233;SDS011;49514;43.538;-5.708;2023-04-01T04:15:59;23.57;;;7.27;;
60233;SDS011;49514;43.538;-5.708;2023-04-01T04:18:25;28.05;;;7.72;;
60233;SDS011;49514;43.538;-5.708;2023-04-01T04:20:52;22.02;;;6.80;;
60233;SDS011;49514;43.538;-5.708;2023-04-01T04:23:19;19.63;;;6.55;;
60233;SDS011;49514;43.538;-5.708;2023-04-01T04:26:05;22.88;;;6.40;;
60233;SDS011;49514;43.538;-5.708;2023-04-01T04:28:34;27.83;;;7.35;;
60233;SDS011;49514;43.538;-5.708;2023-04-01T04:31:01;30.40;;;6.97;;
60233;SDS011;49514;43.538;-5.708;2023-04-01T04:33:31;26.83;;;7.60;;
60233;SDS011;49514;43.538;-5.708;2023-04-01T04:35:59;21.92;;;7.18;;
60233;SDS011;49514;43.538;-5.708;2023-04-01T04:38:28;22.10;;;7.53;;
60233;SDS011;49514;43.538;-5.708;2023-04-01T04:40:55;22.73;;;7.33;;
60233;SDS011;49514;43.538;-5.708;2023-04-01T04:43:22;21.13;;;8.00;;
60233;SDS011;49514;43.538;-5.708;2023-04-01T04:45:49;25.90;;;8.15;;
60233;SDS011;49514;43.538;-5.708;2023-04-01T04:48:16;26.37;;;8.27;;
60233;SDS011;49514;43.538;-5.708;2023-04-01T04:50:47;20.88;;;8.13;;
60233;SDS011;49514;43.538;-5.708;2023-04-01T04:53:15;25.60;;;8.82;;
60233;SDS011;49514;43.538;-5.708;2023-04-01T04:55:44;24.33;;;8.33;;
60233;SDS011;49514;43.538;-5.708;2023-04-01T04:58:29;23.80;;;8.50;;
60233;SDS011;49514;43.538;-5.708;2023-04-01T05:00:56;29.38;;;8.75;;
60233;SDS011;49514;43.538;-5.708;2023-04-01T05:03:27;29.95;;;9.32;;
60233;SDS011;49514;43.538;-5.708;2023-04-01T05:05:54;34.35;;;9.00;;
60233;SDS011;49514;43.538;-5.708;2023-04-01T05:08:20;35.83;;;9.17;;
60233;SDS011;49514;43.538;-5.708;2023-04-01T05:10:47;36.65;;;9.52;;
60233;SDS011;49514;43.538;-5.708;2023-04-01T05:13:14;38.45;;;9.73;;
60233;SDS011;49514;43.538;-5.708;2023-04-01T05:15:42;43.83;;;9.82;;
60233;SDS011;49514;43.538;-5.708;2023-04-01T05:18:08;49.60;;;11.02;;
60233;SDS011;49514;43.538;-5.708;2023-04-01T05:20:35;39.10;;;10.02;;
60233;SDS011;49514;43.538;-5.708;2023-04-01T05:23:02;33.80;;;10.38;;
60233;SDS011;49514;43.538;-5.708;2023-04-01T05:25:29;29.33;;;10.02;;
60233;SDS011;49514;43.538;-5.708;2023-04-01T05:27:56;31.35;;;10.05;;
60233;SDS011;49514;43.538;-5.708;2023-04-01T05:30:23;27.90;;;9.65;;
60233;SDS011;49514;43.538;-5.708;2023-04-01T05:33:00;27.67;;;9.35;;
60233;SDS011;49514;43.538;-5.708;2023-04-01T05:35:27;22.55;;;9.13;;
60233;SDS011;49514;43.538;-5.708;2023-04-01T05:37:54;25.13;;;8.95;;
60233;SDS011;49514;43.538;-5.708;2023-04-01T05:40:21;34.13;;;9.50;;
60233;SDS011;49514;43.538;-5.708;2023-04-01T05:42:47;35.53;;;9.32;;
60233;SDS011;49514;43.538;-5.708;2023-04-01T05:45:16;42.40;;;9.35;;
60233;SDS011;49514;43.538;-5.708;2023-04-01T05:48:05;44.05;;;9.50;;
60233;SDS011;49514;43.538;-5.708;2023-04-01T05:50:39;46.92;;;8.70;;
60233;SDS011;49514;43.538;-5.708;2023-04-01T05:53:08;45.58;;;8.55;;
60233;SDS011;49514;43.538;-5.708;2023-04-01T05:55:36;47.83;;;7.43;;
60233;SDS011;49514;43.538;-5.708;2023-04-01T05:58:04;39.07;;;8.00;;
60233;SDS011;49514;43.538;-5.708;2023-04-01T06:00:32;39.10;;;8.35;;
60233;SDS011;49514;43.538;-5.708;2023-04-01T06:03:00;39.53;;;7.65;;
60233;SDS011;49514;43.538;-5.708;2023-04-01T06:05:28;36.27;;;7.90;;
60233;SDS011;49514;43.538;-5.708;2023-04-01T06:08:01;34.17;;;8.38;;
60233;SDS011;49514;43.538;-5.708;2023-04-01T06:21:54;29.60;;;6.55;;
60233;SDS011;49514;43.538;-5.708;2023-04-01T06:30:22;17.63;;;4.07;;
60233;SDS011;49514;43.538;-5.708;2023-04-01T06:44:51;26.77;;;4.72;;
60233;SDS011;49514;43.538;-5.708;2023-04-01T06:50:58;27.95;;;5.10;;
60233;SDS011;49514;43.538;-5.708;2023-04-01T06:57:14;21.87;;;5.20;;
60233;SDS011;49514;43.538;-5.708;2023-04-01T06:59:50;27.40;;;5.10;;
60233;SDS011;49514;43.538;-5.708;2023-04-01T07:02:39;15.20;;;4.22;;
60233;SDS011;49514;43.538;-5.708;2023-04-01T07:05:11;12.15;;;4.07;;
60233;SDS011;49514;43.538;-5.708;2023-04-01T07:07:46;11.53;;;4.37;;
60233;SDS011;49514;43.538;-5.708;2023-04-01T07:10:22;11.52;;;4.18;;
60233;SDS011;49514;43.538;-5.708;2023-04-01T07:13:27;11.97;;;4.40;;
60233;SDS011;49514;43.538;-5.708;2023-04-01T07:22:05;16.17;;;4.80;;
60233;SDS011;49514;43.538;-5.708;2023-04-01T07:28:04;13.55;;;3.35;;
60233;SDS011;49514;43.538;-5.708;2023-04-01T07:33:33;8.65;;;2.55;;
60233;SDS011;49514;43.538;-5.708;2023-04-01T07:42:24;9.30;;;2.60;;
60233;SDS011;49514;43.538;-5.708;2023-04-01T07:56:38;19.70;;;4.47;;
60233;SDS011;49514;43.538;-5.708;2023-04-01T07:59:12;17.35;;;4.00;;
60233;SDS011;49514;43.538;-5.708;2023-04-01T08:07:31;18.77;;;4.30;;
60233;SDS011;49514;43.538;-5.708;2023-04-01T08:10:44;21.10;;;3.55;;
60233;SDS011;49514;43.538;-5.708;2023-04-01T08:17:38;18.60;;;3.67;;
60233;SDS011;49514;43.538;-5.708;2023-04-01T08:20:14;20.83;;;4.30;;
60233;SDS011;49514;43.538;-5.708;2023-04-01T08:22:44;17.52;;;3.40;;
60233;SDS011;49514;43.538;-5.708;2023-04-01T08:25:24;12.23;;;3.30;;
60233;SDS011;49514;43.538;-5.708;2023-04-01T08:30:36;15.73;;;5.50;;
60233;SDS011;49514;43.538;-5.708;2023-04-01T08:33:22;19.55;;;7.22;;
60233;SDS011;49514;43.538;-5.708;2023-04-01T08:39:39;25.60;;;4.63;;
60233;SDS011;49514;43.538;-5.708;2023-04-01T08:54:00;7.97;;;2.47;;
60233;SDS011;49514;43.538;-5.708;2023-04-01T08:57:00;7.57;;;2.20;;
60233;SDS011;49514;43.538;-5.708;2023-04-01T09:23:08;11.83;;;2.60;;
60233;SDS011;49514;43.538;-5.708;2023-04-01T09:26:02;9.50;;;2.55;;
60233;SDS011;49514;43.538;-5.708;2023-04-01T09:45:52;17.70;;;2.70;;
60233;SDS011;49514;43.538;-5.708;2023-04-01T09:54:32;17.10;;;3.03;;
60233;SDS011;49514;43.538;-5.708;2023-04-01T10:22:43;12.80;;;3.23;;
60233;SDS011;49514;43.538;-5.708;2023-04-01T10:34:10;18.42;;;4.03;;
60233;SDS011;49514;43.538;-5.708;2023-04-01T10:36:57;11.80;;;2.77;;
60233;SDS011;49514;43.538;-5.708;2023-04-01T10:45:54;10.07;;;3.20;;
60233;SDS011;49514;43.538;-5.708;2023-04-01T10:48:53;10.95;;;2.83;;
60233;SDS011;49514;43.538;-5.708;2023-04-01T12:59:21;13.88;;;1.40;;
60233;SDS011;49514;43.538;-5.708;2023-04-01T13:04:51;14.02;;;2.50;;
60233;SDS011;49514;43.538;-5.708;2023-04-01T13:10:27;13.48;;;2.50;;
60233;SDS011;49514;43.538;-5.708;2023-04-01T13:15:54;14.07;;;2.35;;
60233;SDS011;49514;43.538;-5.708;2023-04-01T13:21:27;11.00;;;1.70;;
60233;SDS011;49514;43.538;-5.708;2023-04-01T13:32:44;1.90;;;0.68;;
60233;SDS011;49514;43.538;-5.708;2023-04-01T13:42:59;5.13;;;1.20;;
60233;SDS011;49514;43.538;-5.708;2023-04-01T13:45:50;5.65;;;1.35;;
60233;SDS011;49514;43.538;-5.708;2023-04-01T14:09:30;11.57;;;1.83;;
60233;SDS011;49514;43.538;-5.708;2023-04-01T14:59:48;15.43;;;2.67;;
60233;SDS011;49514;43.538;-5.708;2023-04-01T15:05:49;10.48;;;1.80;;
60233;SDS011;49514;43.538;-5.708;2023-04-01T15:22:04;14.63;;;2.87;;
60233;SDS011;49514;43.538;-5.708;2023-04-01T15:24:39;9.38;;;1.77;;
60233;SDS011;49514;43.538;-5.708;2023-04-01T15:27:37;12.95;;;2.50;;
60233;SDS011;49514;43.538;-5.708;2023-04-01T15:51:54;10.10;;;2.13;;
60233;SDS011;49514;43.538;-5.708;2023-04-01T15:57:36;11.20;;;2.25;;
60233;SDS011;49514;43.538;-5.708;2023-04-01T16:11:40;12.63;;;2.40;;
60233;SDS011;49514;43.538;-5.708;2023-04-01T16:19:31;10.60;;;2.33;;
60233;SDS011;49514;43.538;-5.708;2023-04-01T16:33:52;16.30;;;2.50;;
60233;SDS011;49514;43.538;-5.708;2023-04-01T16:36:35;10.70;;;2.60;;
60233;SDS011;49514;43.538;-5.708;2023-04-01T16:45:39;15.05;;;2.70;;
60233;SDS011;49514;43.538;-5.708;2023-04-01T16:48:22;15.07;;;2.67;;
60233;SDS011;49514;43.538;-5.708;2023-04-01T16:56:39;9.25;;;1.60;;
60233;SDS011;49514;43.538;-5.708;2023-04-01T16:59:21;11.63;;;2.03;;
60233;SDS011;49514;43.538;-5.708;2023-04-01T17:04:46;10.95;;;1.63;;
60233;SDS011;49514;43.538;-5.708;2023-04-01T17:15:58;16.47;;;1.90;;
60233;SDS011;49514;43.538;-5.708;2023-04-01T17:21:07;11.43;;;1.88;;
60233;SDS011;49514;43.538;-5.708;2023-04-01T17:26:30;9.45;;;1.85;;
60233;SDS011;49514;43.538;-5.708;2023-04-01T17:34:54;8.48;;;1.58;;
60233;SDS011;49514;43.538;-5.708;2023-04-01T17:43:43;14.50;;;2.13;;
60233;SDS011;49514;43.538;-5.708;2023-04-01T17:49:19;10.70;;;2.22;;
60233;SDS011;49514;43.538;-5.708;2023-04-01T17:52:02;10.07;;;1.67;;
60233;SDS011;49514;43.538;-5.708;2023-04-01T18:19:29;12.77;;;1.83;;
60233;SDS011;49514;43.538;-5.708;2023-04-01T18:22:17;19.85;;;2.40;;
60233;SDS011;49514;43.538;-5.708;2023-04-01T18:25:01;14.15;;;2.03;;
60233;SDS011;49514;43.538;-5.708;2023-04-01T18:30:51;10.98;;;1.65;;
60233;SDS011;49514;43.538;-5.708;2023-04-01T18:33:45;11.40;;;1.88;;
60233;SDS011;49514;43.538;-5.708;2023-04-01T18:36:24;15.57;;;2.13;;
60233;SDS011;49514;43.538;-5.708;2023-04-01T18:39:03;12.90;;;2.10;;
60233;SDS011;49514;43.538;-5.708;2023-04-01T18:56:03;18.15;;;2.00;;
60233;SDS011;49514;43.538;-5.708;2023-04-01T18:58:48;10.23;;;1.98;;
60233;SDS011;49514;43.538;-5.708;2023-04-01T19:01:23;16.73;;;2.20;;
60233;SDS011;49514;43.538;-5.708;2023-04-01T19:04:23;12.07;;;2.08;;
60233;SDS011;49514;43.538;-5.708;2023-04-01T19:06:59;11.93;;;2.38;;
60233;SDS011;49514;43.538;-5.708;2023-04-01T19:09:32;12.73;;;2.70;;
60233;SDS011;49514;43.538;-5.708;2023-04-01T19:12:18;17.17;;;2.50;;
60233;SDS011;49514;43.538;-5.708;2023-04-01T19:15:00;12.13;;;2.13;;
60233;SDS011;49514;43.538;-5.708;2023-04-01T19:20:51;18.35;;;2.33;;
60233;SDS011;49514;43.538;-5.708;2023-04-01T19:26:20;21.77;;;3.08;;
60233;SDS011;49514;43.538;-5.708;2023-04-01T19:28:57;11.52;;;1.95;;
60233;SDS011;49514;43.538;-5.708;2023-04-01T19:34:45;16.90;;;2.95;;
60233;SDS011;49514;43.538;-5.708;2023-04-01T19:45:44;12.15;;;1.80;;
60233;SDS011;49514;43.538;-5.708;2023-04-01T19:48:44;13.60;;;2.28;;
60233;SDS011;49514;43.538;-5.708;2023-04-01T19:51:51;12.82;;;1.75;;
60233;SDS011;49514;43.538;-5.708;2023-04-01T20:00:06;19.83;;;2.40;;
60233;SDS011;49514;43.538;-5.708;2023-04-01T20:08:19;13.05;;;2.30;;
60233;SDS011;49514;43.538;-5.708;2023-04-01T20:13:40;13.82;;;1.70;;
60233;SDS011;49514;43.538;-5.708;2023-04-01T20:16:36;12.25;;;1.55;;
60233;SDS011;49514;43.538;-5.708;2023-04-01T20:19:20;16.45;;;2.38;;
60233;SDS011;49514;43.538;-5.708;2023-04-01T20:22:02;16.33;;;2.33;;
60233;SDS011;49514;43.538;-5.708;2023-04-01T20:24:51;16.83;;;2.50;;
60233;SDS011;49514;43.538;-5.708;2023-04-01T20:27:20;15.25;;;2.35;;
60233;SDS011;49514;43.538;-5.708;2023-04-01T20:41:07;15.48;;;2.03;;
60233;SDS011;49514;43.538;-5.708;2023-04-01T20:52:22;10.90;;;1.83;;
60233;SDS011;49514;43.538;-5.708;2023-04-01T21:00:15;13.93;;;2.20;;
60233;SDS011;49514;43.538;-5.708;2023-04-01T21:03:06;9.85;;;1.73;;
60233;SDS011;49514;43.538;-5.708;2023-04-01T21:11:39;14.98;;;2.17;;
60233;SDS011;49514;43.538;-5.708;2023-04-01T21:23:29;17.23;;;2.60;;
60233;SDS011;49514;43.538;-5.708;2023-04-01T21:34:43;14.20;;;2.10;;
60233;SDS011;49514;43.538;-5.708;2023-04-01T21:37:22;17.55;;;2.17;;
60233;SDS011;49514;43.538;-5.708;2023-04-01T22:00:53;21.67;;;2.90;;
60233;SDS011;49514;43.538;-5.708;2023-04-01T22:06:08;14.93;;;2.20;;
60233;SDS011;49514;43.538;-5.708;2023-04-01T22:14:38;16.38;;;2.70;;
60233;SDS011;49514;43.538;-5.708;2023-04-01T22:23:08;24.33;;;2.83;;
60233;SDS011;49514;43.538;-5.708;2023-04-01T22:25:52;33.38;;;3.05;;
60233;SDS011;49514;43.538;-5.708;2023-04-01T22:31:01;22.75;;;3.00;;
60233;SDS011;49514;43.538;-5.708;2023-04-01T22:45:11;18.67;;;2.53;;
60233;SDS011;49514;43.538;-5.708;2023-04-01T22:50:50;23.27;;;2.63;;
60233;SDS011;49514;43.538;-5.708;2023-04-01T22:56:05;27.95;;;4.03;;
60233;SDS011;49514;43.538;-5.708;2023-04-01T22:58:41;17.20;;;2.47;;
60233;SDS011;49514;43.538;-5.708;2023-04-01T23:01:16;28.52;;;2.63;;
60233;SDS011;49514;43.538;-5.708;2023-04-01T23:03:53;27.20;;;2.85;;
60233;SDS011;49514;43.538;-5.708;2023-04-01T23:06:24;21.02;;;2.60;;
60233;SDS011;49514;43.538;-5.708;2023-04-01T23:22:23;39.80;;;4.10;;
60233;SDS011;49514;43.538;-5.708;2023-04-01T23:27:51;30.75;;;3.58;;
60233;SDS011;49514;43.538;-5.708;2023-04-01T23:35:56;28.05;;;2.58;;
60233;SDS011;49514;43.538;-5.708;2023-04-01T23:38:32;16.95;;;2.60;;
60233;SDS011;49514;43.538;-5.708;2023-04-01T23:41:01;24.15;;;2.92;;
60233;SDS011;49514;43.538;-5.708;2023-04-01T23:43:30;19.23;;;2.63;;
60233;SDS011;49514;43.538;-5.708;2023-04-01T23:46:01;17.00;;;2.65;;
60233;SDS011;49514;43.538;-5.708;2023-04-01T23:48:35;19.05;;;2.45;;
60233;SDS011;49514;43.538;-5.708;2023-04-01T23:51:10;22.73;;;2.53;;
60233;SDS011;49514;43.538;-5.708;2023-04-01T23:53:59;19.25;;;2.13;;
60233;SDS011;49514;43.538;-5.708;2023-04-01T23:56:47;18.90;;;2.42;;
60233;SDS011;49514;43.538;-5.708;2023-04-01T23:59:18;17.27;;;2.47;;
